sensor_id;sensor_type;location;lat;lon;timestamp;pressure;altitude;pressure_sealevel;temperature;humidity
40315;BME280;26021;45.640;11.302;2022-08-04T00:09:38;98864.78;;;23.89;100.00
40315;BME280;26021;45.640;11.302;2022-08-04T00:12:10;98871.06;;;23.90;100.00
40315;BME280;26021;45.640;11.302;2022-08-04T00:14:38;98873.75;;;23.85;100.00
40315;BME280;26021;45.640;11.302;2022-08-04T00:17:08;98705.69;;;22.66;100.00
40315;BME280;26021;45.640;11.302;2022-08-04T00:19:43;98867.34;;;23.69;100.00
40315;BME280;26021;45.640;11.302;2022-08-04T00:22:10;98859.88;;;23.59;100.00
40315;BME280;26021;45.640;11.302;2022-08-04T00:24:36;98868.41;;;23.68;100.00
40315;BME280;26021;45.640;11.302;2022-08-04T00:27:02;98864.31;;;23.65;100.00
40315;BME280;26021;45.640;11.302;2022-08-04T00:29:28;98793.47;;;23.17;100.00
40315;BME280;26021;45.640;11.302;2022-08-04T00:31:55;98858.84;;;23.65;100.00
40315;BME280;26021;45.640;11.302;2022-08-04T00:34:23;98861.56;;;23.65;100.00
40315;BME280;26021;45.640;11.302;2022-08-04T00:36:50;98794.09;;;23.29;100.00
40315;BME280;26021;45.640;11.302;2022-08-04T00:39:15;98859.19;;;23.74;100.00
40315;BME280;26021;45.640;11.302;2022-08-04T00:42:13;98851.28;;;23.77;100.00
40315;BME280;26021;45.640;11.302;2022-08-04T00:47:43;98865.81;;;23.83;100.00
40315;BME280;26021;45.640;11.302;2022-08-04T00:50:24;98860.06;;;23.80;100.00
40315;BME280;26021;45.640;11.302;2022-08-04T00:53:08;98832.47;;;23.49;100.00
40315;BME280;26021;45.640;11.302;2022-08-04T00:55:48;98860.88;;;23.80;100.00
40315;BME280;26021;45.640;11.302;2022-08-04T00:58:31;98862.53;;;23.81;100.00
40315;BME280;26021;45.640;11.302;2022-08-04T01:01:07;98860.50;;;23.66;100.00
40315;BME280;26021;45.640;11.302;2022-08-04T01:15:03;98859.19;;;23.74;100.00
40315;BME280;26021;45.640;11.302;2022-08-04T01:20:20;98851.31;;;23.51;100.00
40315;BME280;26021;45.640;11.302;2022-08-04T01:31:13;98845.94;;;23.56;100.00
40315;BME280;26021;45.640;11.302;2022-08-04T01:33:47;98833.47;;;23.70;100.00
40315;BME280;26021;45.640;11.302;2022-08-04T01:36:13;98824.09;;;23.56;100.00
40315;BME280;26021;45.640;11.302;2022-08-04T01:38:39;98797.56;;;23.19;100.00
40315;BME280;26021;45.640;11.302;2022-08-04T01:41:07;98845.19;;;23.65;100.00
40315;BME280;26021;45.640;11.302;2022-08-04T01:43:45;98839.03;;;23.48;100.00
40315;BME280;26021;45.640;11.302;2022-08-04T01:46:14;98837.91;;;23.44;100.00
40315;BME280;26021;45.640;11.302;2022-08-04T01:48:41;98837.47;;;23.57;100.00
40315;BME280;26021;45.640;11.302;2022-08-04T01:51:08;98843.81;;;23.63;100.00
40315;BME280;26021;45.640;11.302;2022-08-04T01:53:36;98830.97;;;23.63;100.00
40315;BME280;26021;45.640;11.302;2022-08-04T01:56:03;98837.63;;;23.45;100.00
40315;BME280;26021;45.640;11.302;2022-08-04T01:58:32;98834.91;;;23.45;100.00
40315;BME280;26021;45.640;11.302;2022-08-04T02:01:02;98831.66;;;23.49;100.00
40315;BME280;26021;45.640;11.302;2022-08-04T02:03:29;98827.13;;;23.59;100.00
40315;BME280;26021;45.640;11.302;2022-08-04T02:06:31;98833.25;;;23.44;100.00
40315;BME280;26021;45.640;11.302;2022-08-04T02:12:07;98830.44;;;23.34;100.00
40315;BME280;26021;45.640;11.302;2022-08-04T02:14:43;98836.91;;;23.23;100.00
40315;BME280;26021;45.640;11.302;2022-08-04T02:23:15;98839.22;;;23.09;100.00
40315;BME280;26021;45.640;11.302;2022-08-04T02:25:55;98832.31;;;23.29;100.00
40315;BME280;26021;45.640;11.302;2022-08-04T02:30:50;98830.56;;;23.18;100.00
40315;BME280;26021;45.640;11.302;2022-08-04T02:33:30;98834.13;;;23.18;100.00
40315;BME280;26021;45.640;11.302;2022-08-04T02:36:02;98830.84;;;23.16;100.00
40315;BME280;26021;45.640;11.302;2022-08-04T02:41:00;98813.47;;;23.27;100.00
40315;BME280;26021;45.640;11.302;2022-08-04T02:43:27;98827.81;;;23.44;100.00
40315;BME280;26021;45.640;11.302;2022-08-04T02:45:55;98679.84;;;22.41;100.00
40315;BME280;26021;45.640;11.302;2022-08-04T02:48:25;98822.31;;;23.39;100.00
40315;BME280;26021;45.640;11.302;2022-08-04T02:50:53;98720.34;;;22.60;100.00
40315;BME280;26021;45.640;11.302;2022-08-04T02:53:24;98765.00;;;23.07;100.00
40315;BME280;26021;45.640;11.302;2022-08-04T02:55:51;98821.13;;;23.30;100.00
40315;BME280;26021;45.640;11.302;2022-08-04T02:58:19;98820.28;;;23.25;100.00
40315;BME280;26021;45.640;11.302;2022-08-04T03:00:48;98813.78;;;23.31;100.00
40315;BME280;26021;45.640;11.302;2022-08-04T03:03:26;98813.03;;;23.08;100.00
40315;BME280;26021;45.640;11.302;2022-08-04T03:08:59;98810.75;;;23.27;100.00
40315;BME280;26021;45.640;11.302;2022-08-04T03:14:16;98820.41;;;23.08;100.00
40315;BME280;26021;45.640;11.302;2022-08-04T03:31:54;98742.34;;;22.53;100.00
40315;BME280;26021;45.640;11.302;2022-08-04T03:51:29;98753.94;;;22.65;100.00
40315;BME280;26021;45.640;11.302;2022-08-04T04:23:30;98770.81;;;22.89;100.00
40315;BME280;26021;45.640;11.302;2022-08-04T04:42:24;98820.78;;;22.95;100.00
40315;BME280;26021;45.640;11.302;2022-08-04T04:50:43;98830.88;;;23.21;100.00
40315;BME280;26021;45.640;11.302;2022-08-04T04:56:05;98824.50;;;23.10;100.00
40315;BME280;26021;45.640;11.302;2022-08-04T04:58:34;98834.66;;;23.15;100.00
40315;BME280;26021;45.640;11.302;2022-08-04T05:03:35;98833.88;;;23.20;100.00
40315;BME280;26021;45.640;11.302;2022-08-04T05:11:56;98834.78;;;23.30;100.00
40315;BME280;26021;45.640;11.302;2022-08-04T05:14:43;98829.28;;;23.25;100.00
40315;BME280;26021;45.640;11.302;2022-08-04T05:17:55;98838.06;;;23.32;100.00
40315;BME280;26021;45.640;11.302;2022-08-04T05:20:06;98842.56;;;23.49;100.00
40315;BME280;26021;45.640;11.302;2022-08-04T05:22:40;98837.47;;;23.57;100.00
40315;BME280;26021;45.640;11.302;2022-08-04T05:25:19;98828.38;;;23.79;100.00
40315;BME280;26021;45.640;11.302;2022-08-04T05:30:21;98827.72;;;24.03;100.00
40315;BME280;26021;45.640;11.302;2022-08-04T05:33:02;98825.91;;;24.24;100.00
40315;BME280;26021;45.640;11.302;2022-08-04T05:35:49;98824.63;;;24.37;100.00
40315;BME280;26021;45.640;11.302;2022-08-04T05:38:21;98825.72;;;24.36;100.00
40315;BME280;26021;45.640;11.302;2022-08-04T05:40:49;98750.91;;;23.95;100.00
40315;BME280;26021;45.640;11.302;2022-08-04T05:43:16;98819.81;;;24.64;100.00
40315;BME280;26021;45.640;11.302;2022-08-04T05:45:42;98757.91;;;24.33;98.98
40315;BME280;26021;45.640;11.302;2022-08-04T05:48:13;98819.34;;;24.88;98.29
40315;BME280;26021;45.640;11.302;2022-08-04T05:50:38;98815.00;;;25.02;97.95
40315;BME280;26021;45.640;11.302;2022-08-04T05:53:05;98821.31;;;25.02;97.97
40315;BME280;26021;45.640;11.302;2022-08-04T05:55:32;98814.97;;;24.92;100.00
40315;BME280;26021;45.640;11.302;2022-08-04T05:57:58;98811.19;;;25.18;99.69
40315;BME280;26021;45.640;11.302;2022-08-04T06:00:26;98767.13;;;24.99;97.93
40315;BME280;26021;45.640;11.302;2022-08-04T06:02:53;98813.16;;;25.48;95.96
40315;BME280;26021;45.640;11.302;2022-08-04T06:05:18;98814.25;;;25.52;95.51
40315;BME280;26021;45.640;11.302;2022-08-04T06:07:44;98810.13;;;25.60;94.19
40315;BME280;26021;45.640;11.302;2022-08-04T06:10:10;98788.22;;;25.40;94.62
40315;BME280;26021;45.640;11.302;2022-08-04T06:12:51;98812.28;;;25.98;91.75
40315;BME280;26021;45.640;11.302;2022-08-04T06:15:19;98808.66;;;26.23;91.09
40315;BME280;26021;45.640;11.302;2022-08-04T06:17:48;98818.13;;;26.56;90.29
40315;BME280;26021;45.640;11.302;2022-08-04T06:20:16;98811.13;;;26.20;90.19
40315;BME280;26021;45.640;11.302;2022-08-04T06:22:45;98780.38;;;26.38;88.28
40315;BME280;26021;45.640;11.302;2022-08-04T06:25:14;98806.81;;;26.73;87.86
40315;BME280;26021;45.640;11.302;2022-08-04T06:27:41;98803.13;;;26.98;84.88
40315;BME280;26021;45.640;11.302;2022-08-04T06:30:07;98800.13;;;27.34;83.62
40315;BME280;26021;45.640;11.302;2022-08-04T06:32:40;98780.63;;;27.69;81.21
40315;BME280;26021;45.640;11.302;2022-08-04T06:35:14;98808.84;;;27.41;79.60
40315;BME280;26021;45.640;11.302;2022-08-04T06:37:42;98810.75;;;27.79;79.78
40315;BME280;26021;45.640;11.302;2022-08-04T06:40:13;98806.31;;;27.83;76.65
40315;BME280;26021;45.640;11.302;2022-08-04T06:42:40;98810.84;;;27.69;77.56
40315;BME280;26021;45.640;11.302;2022-08-04T06:45:06;98784.88;;;27.51;76.70
40315;BME280;26021;45.640;11.302;2022-08-04T06:47:34;98795.22;;;27.65;77.08
40315;BME280;26021;45.640;11.302;2022-08-04T06:50:03;98768.69;;;27.50;75.12
40315;BME280;26021;45.640;11.302;2022-08-04T06:52:29;98811.91;;;27.73;76.51
40315;BME280;26021;45.640;11.302;2022-08-04T06:54:55;98792.16;;;28.19;75.87
40315;BME280;26021;45.640;11.302;2022-08-04T06:57:29;98818.66;;;28.39;73.05
40315;BME280;26021;45.640;11.302;2022-08-04T07:00:00;98813.19;;;28.58;72.05
40315;BME280;26021;45.640;11.302;2022-08-04T07:02:28;98799.66;;;28.80;70.17
40315;BME280;26021;45.640;11.302;2022-08-04T07:04:54;98786.38;;;28.87;68.91
40315;BME280;26021;45.640;11.302;2022-08-04T07:07:20;98763.00;;;28.66;69.11
40315;BME280;26021;45.640;11.302;2022-08-04T07:09:47;98807.50;;;29.29;66.50
40315;BME280;26021;45.640;11.302;2022-08-04T07:12:14;98804.41;;;29.17;67.33
40315;BME280;26021;45.640;11.302;2022-08-04T07:14:44;98809.81;;;28.85;67.77
40315;BME280;26021;45.640;11.302;2022-08-04T07:17:12;98803.50;;;28.84;70.46
40315;BME280;26021;45.640;11.302;2022-08-04T07:19:39;98797.94;;;29.08;68.08
40315;BME280;26021;45.640;11.302;2022-08-04T07:22:06;98808.66;;;29.09;69.50
40315;BME280;26021;45.640;11.302;2022-08-04T07:24:35;98797.69;;;29.23;68.75
40315;BME280;26021;45.640;11.302;2022-08-04T07:27:01;98775.34;;;29.44;67.25
40315;BME280;26021;45.640;11.302;2022-08-04T07:29:27;98790.78;;;29.58;67.48
40315;BME280;26021;45.640;11.302;2022-08-04T07:31:57;98740.75;;;29.51;67.40
40315;BME280;26021;45.640;11.302;2022-08-04T07:34:25;98789.75;;;30.00;63.84
40315;BME280;26021;45.640;11.302;2022-08-04T07:36:52;98788.81;;;29.91;65.16
40315;BME280;26021;45.640;11.302;2022-08-04T07:39:18;98796.94;;;30.15;62.67
40315;BME280;26021;45.640;11.302;2022-08-04T07:41:45;98786.47;;;29.98;63.84
40315;BME280;26021;45.640;11.302;2022-08-04T07:44:13;98791.81;;;30.09;63.08
40315;BME280;26021;45.640;11.302;2022-08-04T07:46:39;98789.69;;;30.19;62.15
40315;BME280;26021;45.640;11.302;2022-08-04T07:49:05;98739.59;;;29.85;62.44
40315;BME280;26021;45.640;11.302;2022-08-04T07:51:32;98780.91;;;30.17;63.76
40315;BME280;26021;45.640;11.302;2022-08-04T07:54:00;98780.19;;;30.25;63.26
40315;BME280;26021;45.640;11.302;2022-08-04T07:56:27;98784.69;;;30.49;62.55
40315;BME280;26021;45.640;11.302;2022-08-04T07:58:53;98780.28;;;30.48;62.30
40315;BME280;26021;45.640;11.302;2022-08-04T08:01:20;98737.47;;;29.82;62.21
40315;BME280;26021;45.640;11.302;2022-08-04T08:03:46;98774.03;;;30.28;61.05
40315;BME280;26021;45.640;11.302;2022-08-04T08:06:13;98778.66;;;30.06;62.82
40315;BME280;26021;45.640;11.302;2022-08-04T08:08:39;98730.63;;;30.20;61.25
40315;BME280;26021;45.640;11.302;2022-08-04T08:11:08;98779.25;;;30.57;60.39
40315;BME280;26021;45.640;11.302;2022-08-04T08:13:35;98781.31;;;30.24;61.55
40315;BME280;26021;45.640;11.302;2022-08-04T08:16:02;98774.44;;;30.49;60.60
40315;BME280;26021;45.640;11.302;2022-08-04T08:18:28;98764.00;;;30.46;59.19
40315;BME280;26021;45.640;11.302;2022-08-04T08:20:54;98774.25;;;30.59;58.98
40315;BME280;26021;45.640;11.302;2022-08-04T08:23:20;98734.06;;;30.53;59.35
40315;BME280;26021;45.640;11.302;2022-08-04T08:25:46;98762.50;;;30.90;58.55
40315;BME280;26021;45.640;11.302;2022-08-04T08:28:12;98761.75;;;30.76;56.57
40315;BME280;26021;45.640;11.302;2022-08-04T08:30:37;98767.59;;;30.96;58.08
40315;BME280;26021;45.640;11.302;2022-08-04T08:33:06;98761.84;;;31.07;56.67
40315;BME280;26021;45.640;11.302;2022-08-04T08:38:08;98758.31;;;30.92;57.98
40315;BME280;26021;45.640;11.302;2022-08-04T08:51:29;98767.03;;;31.22;56.05
40315;BME280;26021;45.640;11.302;2022-08-04T08:57:44;98769.91;;;31.39;53.16
40315;BME280;26021;45.640;11.302;2022-08-04T09:00:11;98763.13;;;31.45;52.63
40315;BME280;26021;45.640;11.302;2022-08-04T09:10:32;98760.75;;;31.30;51.26
40315;BME280;26021;45.640;11.302;2022-08-04T09:15:40;98759.91;;;31.74;49.94
40315;BME280;26021;45.640;11.302;2022-08-04T09:18:20;98763.47;;;31.75;49.74
40315;BME280;26021;45.640;11.302;2022-08-04T09:20:50;98758.44;;;31.77;48.84
40315;BME280;26021;45.640;11.302;2022-08-04T09:23:38;98763.97;;;31.77;48.18
40315;BME280;26021;45.640;11.302;2022-08-04T09:28:46;98758.78;;;31.75;48.04
40315;BME280;26021;45.640;11.302;2022-08-04T09:31:21;98758.91;;;31.48;47.43
40315;BME280;26021;45.640;11.302;2022-08-04T09:33:57;98746.56;;;31.45;47.32
40315;BME280;26021;45.640;11.302;2022-08-04T09:39:05;98758.91;;;32.01;47.55
40315;BME280;26021;45.640;11.302;2022-08-04T09:44:24;98745.97;;;31.88;46.05
40315;BME280;26021;45.640;11.302;2022-08-04T09:47:05;98750.94;;;32.00;46.52
40315;BME280;26021;45.640;11.302;2022-08-04T09:52:46;98748.63;;;32.33;44.47
40315;BME280;26021;45.640;11.302;2022-08-04T09:55:17;98755.31;;;32.40;43.35
40315;BME280;26021;45.640;11.302;2022-08-04T09:58:00;98719.03;;;32.02;43.61
40315;BME280;26021;45.640;11.302;2022-08-04T10:00:33;98715.56;;;31.57;44.20
40315;BME280;26021;45.640;11.302;2022-08-04T10:03:00;98687.38;;;31.46;44.81
40315;BME280;26021;45.640;11.302;2022-08-04T10:11:21;98730.53;;;32.35;44.28
40315;BME280;26021;45.640;11.302;2022-08-04T10:19:37;98702.38;;;32.42;43.30
40315;BME280;26021;45.640;11.302;2022-08-04T10:25:04;98726.66;;;32.53;43.03
40315;BME280;26021;45.640;11.302;2022-08-04T10:27:42;98726.16;;;32.43;43.91
40315;BME280;26021;45.640;11.302;2022-08-04T10:30:09;98709.22;;;32.44;44.28
40315;BME280;26021;45.640;11.302;2022-08-04T10:35:20;98716.28;;;32.02;43.85
40315;BME280;26021;45.640;11.302;2022-08-04T10:40:38;98712.66;;;32.41;44.21
40315;BME280;26021;45.640;11.302;2022-08-04T10:43:29;98712.16;;;32.57;44.04
40315;BME280;26021;45.640;11.302;2022-08-04T10:46:25;98711.00;;;32.32;44.39
40315;BME280;26021;45.640;11.302;2022-08-04T10:49:09;98705.16;;;32.50;43.56
40315;BME280;26021;45.640;11.302;2022-08-04T10:54:46;98695.06;;;32.63;43.83
40315;BME280;26021;45.640;11.302;2022-08-04T11:00:06;98697.53;;;32.73;42.49
40315;BME280;26021;45.640;11.302;2022-08-04T11:02:36;98712.66;;;32.59;41.44
40315;BME280;26021;45.640;11.302;2022-08-04T11:05:43;98700.81;;;32.75;41.22
40315;BME280;26021;45.640;11.302;2022-08-04T11:08:14;98705.34;;;32.63;40.77
40315;BME280;26021;45.640;11.302;2022-08-04T11:14:06;98670.81;;;32.60;41.10
40315;BME280;26021;45.640;11.302;2022-08-04T11:16:52;98699.53;;;32.81;40.55
40315;BME280;26021;45.640;11.302;2022-08-04T11:19:29;98695.25;;;32.75;41.19
40315;BME280;26021;45.640;11.302;2022-08-04T11:21:59;98696.25;;;32.71;40.51
40315;BME280;26021;45.640;11.302;2022-08-04T11:24:35;98708.25;;;32.58;40.73
40315;BME280;26021;45.640;11.302;2022-08-04T11:27:14;98705.97;;;32.60;41.27
40315;BME280;26021;45.640;11.302;2022-08-04T11:32:43;98686.00;;;32.89;40.09
40315;BME280;26021;45.640;11.302;2022-08-04T11:35:26;98683.88;;;32.94;40.83
40315;BME280;26021;45.640;11.302;2022-08-04T11:38:01;98688.25;;;33.12;40.46
40315;BME280;26021;45.640;11.302;2022-08-04T11:40:36;98686.47;;;33.08;40.06
40315;BME280;26021;45.640;11.302;2022-08-04T11:43:07;98684.81;;;33.15;40.13
40315;BME280;26021;45.640;11.302;2022-08-04T11:45:37;98687.72;;;33.28;40.25
40315;BME280;26021;45.640;11.302;2022-08-04T11:48:16;98659.50;;;33.26;39.66
40315;BME280;26021;45.640;11.302;2022-08-04T11:50:46;98693.28;;;33.45;40.13
40315;BME280;26021;45.640;11.302;2022-08-04T11:53:17;98687.22;;;33.43;39.50
40315;BME280;26021;45.640;11.302;2022-08-04T11:55:45;98693.69;;;33.64;39.16
40315;BME280;26021;45.640;11.302;2022-08-04T11:58:14;98684.13;;;33.44;39.82
40315;BME280;26021;45.640;11.302;2022-08-04T12:00:49;98683.88;;;33.67;39.17
40315;BME280;26021;45.640;11.302;2022-08-04T12:06:20;98664.22;;;33.51;38.85
40315;BME280;26021;45.640;11.302;2022-08-04T12:11:59;98671.34;;;33.61;39.66
40315;BME280;26021;45.640;11.302;2022-08-04T12:15:15;98673.56;;;33.21;40.58
40315;BME280;26021;45.640;11.302;2022-08-04T12:17:56;98666.88;;;33.22;40.66
40315;BME280;26021;45.640;11.302;2022-08-04T12:20:28;98670.59;;;33.26;40.39
40315;BME280;26021;45.640;11.302;2022-08-04T12:22:55;98672.59;;;33.16;40.64
40315;BME280;26021;45.640;11.302;2022-08-04T12:25:34;98659.69;;;33.21;40.82
40315;BME280;26021;45.640;11.302;2022-08-04T12:28:04;98656.91;;;33.38;40.33
40315;BME280;26021;45.640;11.302;2022-08-04T12:30:35;98663.63;;;33.20;40.54
40315;BME280;26021;45.640;11.302;2022-08-04T12:33:04;98659.19;;;33.36;39.78
40315;BME280;26021;45.640;11.302;2022-08-04T12:35:51;98655.75;;;33.39;40.31
40315;BME280;26021;45.640;11.302;2022-08-04T12:38:21;98664.88;;;33.39;39.96
40315;BME280;26021;45.640;11.302;2022-08-04T12:40:50;98659.97;;;33.54;40.05
40315;BME280;26021;45.640;11.302;2022-08-04T12:46:02;98661.63;;;33.46;39.94
40315;BME280;26021;45.640;11.302;2022-08-04T12:48:29;98661.00;;;33.78;39.35
40315;BME280;26021;45.640;11.302;2022-08-04T12:50:57;98654.13;;;33.38;40.32
40315;BME280;26021;45.640;11.302;2022-08-04T12:53:30;98653.59;;;33.53;40.13
40315;BME280;26021;45.640;11.302;2022-08-04T12:55:57;98521.28;;;32.69;39.76
40315;BME280;26021;45.640;11.302;2022-08-04T12:58:25;98611.63;;;33.16;40.26
40315;BME280;26021;45.640;11.302;2022-08-04T13:00:59;98637.19;;;33.31;40.41
40315;BME280;26021;45.640;11.302;2022-08-04T13:03:54;98643.84;;;33.47;40.59
40315;BME280;26021;45.640;11.302;2022-08-04T13:06:33;98643.53;;;33.78;39.98
40315;BME280;26021;45.640;11.302;2022-08-04T13:09:07;98639.41;;;33.93;40.21
40315;BME280;26021;45.640;11.302;2022-08-04T13:11:39;98637.00;;;33.83;39.65
40315;BME280;26021;45.640;11.302;2022-08-04T13:14:06;98648.25;;;33.48;40.48
40315;BME280;26021;45.640;11.302;2022-08-04T13:16:32;98608.44;;;33.44;39.83
40315;BME280;26021;45.640;11.302;2022-08-04T13:18:59;98633.38;;;33.91;40.71
40315;BME280;26021;45.640;11.302;2022-08-04T13:21:28;98618.28;;;34.00;39.74
40315;BME280;26021;45.640;11.302;2022-08-04T13:23:56;98636.41;;;34.27;39.55
40315;BME280;26021;45.640;11.302;2022-08-04T13:26:23;98638.47;;;34.09;39.43
40315;BME280;26021;45.640;11.302;2022-08-04T13:28:52;98605.44;;;33.96;39.49
40315;BME280;26021;45.640;11.302;2022-08-04T13:31:21;98621.13;;;34.21;39.23
40315;BME280;26021;45.640;11.302;2022-08-04T13:33:49;98624.25;;;34.11;39.21
40315;BME280;26021;45.640;11.302;2022-08-04T13:36:17;98628.31;;;34.14;38.96
40315;BME280;26021;45.640;11.302;2022-08-04T13:38:48;98617.31;;;34.26;38.82
40315;BME280;26021;45.640;11.302;2022-08-04T13:41:16;98616.19;;;34.27;38.76
40315;BME280;26021;45.640;11.302;2022-08-04T13:43:46;98588.16;;;34.40;37.57
40315;BME280;26021;45.640;11.302;2022-08-04T13:46:16;98597.66;;;34.39;38.28
40315;BME280;26021;45.640;11.302;2022-08-04T13:48:43;98606.91;;;34.23;37.91
40315;BME280;26021;45.640;11.302;2022-08-04T13:51:10;98597.06;;;34.04;38.18
40315;BME280;26021;45.640;11.302;2022-08-04T13:53:39;98597.94;;;33.96;39.03
40315;BME280;26021;45.640;11.302;2022-08-04T13:56:08;98548.63;;;33.72;38.82
40315;BME280;26021;45.640;11.302;2022-08-04T13:58:38;98594.88;;;34.39;38.08
40315;BME280;26021;45.640;11.302;2022-08-04T14:01:14;98591.50;;;34.67;37.63
40315;BME280;26021;45.640;11.302;2022-08-04T14:08:44;98601.84;;;34.46;37.45
40315;BME280;26021;45.640;11.302;2022-08-04T14:11:10;98591.94;;;34.57;36.66
40315;BME280;26021;45.640;11.302;2022-08-04T14:13:37;98592.66;;;34.33;37.28
40315;BME280;26021;45.640;11.302;2022-08-04T14:16:13;98593.16;;;34.47;37.10
40315;BME280;26021;45.640;11.302;2022-08-04T14:18:38;98595.53;;;34.57;36.71
40315;BME280;26021;45.640;11.302;2022-08-04T14:21:13;98590.66;;;34.54;36.83
40315;BME280;26021;45.640;11.302;2022-08-04T14:23:43;98592.91;;;34.73;35.96
40315;BME280;26021;45.640;11.302;2022-08-04T14:26:30;98590.41;;;34.80;36.46
40315;BME280;26021;45.640;11.302;2022-08-04T14:29:06;98537.59;;;34.35;36.88
40315;BME280;26021;45.640;11.302;2022-08-04T14:31:32;98585.06;;;34.42;36.55
40315;BME280;26021;45.640;11.302;2022-08-04T14:33:58;98587.34;;;34.40;36.88
40315;BME280;26021;45.640;11.302;2022-08-04T14:36:23;98580.75;;;34.65;37.14
40315;BME280;26021;45.640;11.302;2022-08-04T14:38:54;98543.38;;;34.75;36.41
40315;BME280;26021;45.640;11.302;2022-08-04T14:41:28;98577.72;;;34.58;36.57
40315;BME280;26021;45.640;11.302;2022-08-04T14:44:00;98582.28;;;34.42;36.72
40315;BME280;26021;45.640;11.302;2022-08-04T14:46:27;98585.94;;;34.34;37.47
40315;BME280;26021;45.640;11.302;2022-08-04T14:49:10;98586.47;;;34.48;37.00
40315;BME280;26021;45.640;11.302;2022-08-04T14:51:51;98575.28;;;34.57;36.33
40315;BME280;26021;45.640;11.302;2022-08-04T14:54:28;98571.34;;;34.58;36.13
40315;BME280;26021;45.640;11.302;2022-08-04T14:57:05;98581.91;;;34.23;36.79
40315;BME280;26021;45.640;11.302;2022-08-04T14:59:46;98565.44;;;34.18;37.01
40315;BME280;26021;45.640;11.302;2022-08-04T15:02:13;98576.13;;;34.69;36.42
40315;BME280;26021;45.640;11.302;2022-08-04T15:04:41;98578.44;;;34.67;36.47
40315;BME280;26021;45.640;11.302;2022-08-04T15:07:07;98572.97;;;34.59;36.91
40315;BME280;26021;45.640;11.302;2022-08-04T15:09:34;98588.84;;;34.70;36.36
40315;BME280;26021;45.640;11.302;2022-08-04T15:12:00;98541.69;;;34.50;36.32
40315;BME280;26021;45.640;11.302;2022-08-04T15:14:26;98583.78;;;34.72;36.87
40315;BME280;26021;45.640;11.302;2022-08-04T15:16:52;98568.81;;;34.65;36.78
40315;BME280;26021;45.640;11.302;2022-08-04T15:19:18;98587.16;;;34.78;36.41
40315;BME280;26021;45.640;11.302;2022-08-04T15:21:44;98578.34;;;34.97;35.91
40315;BME280;26021;45.640;11.302;2022-08-04T15:24:09;98569.78;;;35.02;35.99
40315;BME280;26021;45.640;11.302;2022-08-04T15:26:40;98575.59;;;35.21;35.70
40315;BME280;26021;45.640;11.302;2022-08-04T15:29:19;98573.59;;;34.97;36.51
40315;BME280;26021;45.640;11.302;2022-08-04T15:31:47;98579.06;;;35.06;35.76
40315;BME280;26021;45.640;11.302;2022-08-04T15:34:13;98573.16;;;35.08;36.11
40315;BME280;26021;45.640;11.302;2022-08-04T15:36:55;98570.38;;;35.08;35.57
40315;BME280;26021;45.640;11.302;2022-08-04T15:39:37;98570.84;;;35.22;36.16
40315;BME280;26021;45.640;11.302;2022-08-04T15:42:22;98567.84;;;35.27;35.62
40315;BME280;26021;45.640;11.302;2022-08-04T15:45:22;98567.50;;;34.83;35.60
40315;BME280;26021;45.640;11.302;2022-08-04T15:50:30;98574.41;;;34.98;36.57
40315;BME280;26021;45.640;11.302;2022-08-04T15:53:03;98561.91;;;35.04;36.19
40315;BME280;26021;45.640;11.302;2022-08-04T15:55:36;98563.56;;;35.17;35.61
40315;BME280;26021;45.640;11.302;2022-08-04T15:58:09;98558.91;;;35.21;34.93
40315;BME280;26021;45.640;11.302;2022-08-04T16:08:25;98511.34;;;34.78;35.04
40315;BME280;26021;45.640;11.302;2022-08-04T16:10:51;98530.41;;;35.00;35.17
40315;BME280;26021;45.640;11.302;2022-08-04T16:13:21;98553.44;;;35.00;35.10
40315;BME280;26021;45.640;11.302;2022-08-04T16:15:54;98558.75;;;34.93;35.21
40315;BME280;26021;45.640;11.302;2022-08-04T16:20:57;98551.84;;;34.99;35.06
40315;BME280;26021;45.640;11.302;2022-08-04T16:25:51;98532.03;;;35.01;34.04
40315;BME280;26021;45.640;11.302;2022-08-04T16:28:40;98558.81;;;35.18;34.11
40315;BME280;26021;45.640;11.302;2022-08-04T16:31:08;98546.84;;;35.05;34.25
40315;BME280;26021;45.640;11.302;2022-08-04T16:33:34;98545.94;;;34.80;34.60
40315;BME280;26021;45.640;11.302;2022-08-04T16:36:00;98546.97;;;34.76;34.78
40315;BME280;26021;45.640;11.302;2022-08-04T16:38:26;98547.88;;;34.67;35.96
40315;BME280;26021;45.640;11.302;2022-08-04T16:40:59;98429.06;;;34.07;35.49
40315;BME280;26021;45.640;11.302;2022-08-04T16:43:30;98555.66;;;34.41;34.68
40315;BME280;26021;45.640;11.302;2022-08-04T16:46:02;98555.50;;;34.58;35.31
40315;BME280;26021;45.640;11.302;2022-08-04T16:48:33;98563.81;;;34.58;35.18
40315;BME280;26021;45.640;11.302;2022-08-04T16:51:01;98559.47;;;34.69;35.35
40315;BME280;26021;45.640;11.302;2022-08-04T16:53:35;98559.38;;;34.78;35.33
40315;BME280;26021;45.640;11.302;2022-08-04T16:56:01;98555.72;;;34.53;36.72
40315;BME280;26021;45.640;11.302;2022-08-04T16:58:29;98566.72;;;34.62;36.51
40315;BME280;26021;45.640;11.302;2022-08-04T17:00:56;98562.66;;;34.59;36.89
40315;BME280;26021;45.640;11.302;2022-08-04T17:03:22;98558.75;;;34.60;37.08
40315;BME280;26021;45.640;11.302;2022-08-04T17:05:48;98555.66;;;34.20;38.39
40315;BME280;26021;45.640;11.302;2022-08-04T17:08:14;98560.03;;;34.00;38.49
40315;BME280;26021;45.640;11.302;2022-08-04T17:10:45;98563.22;;;33.90;38.79
40315;BME280;26021;45.640;11.302;2022-08-04T17:15:53;98562.34;;;33.69;40.54
40315;BME280;26021;45.640;11.302;2022-08-04T17:18:30;98566.69;;;33.78;39.50
40315;BME280;26021;45.640;11.302;2022-08-04T17:21:11;98554.00;;;33.48;40.72
40315;BME280;26021;45.640;11.302;2022-08-04T17:23:43;98565.22;;;33.05;41.92